Time,TemperatureF,DewpointF,PressureIn,WindDirection,WindDirectionDegrees,WindSpeedMPH,WindSpeedGustMPH,Humidity,HourlyPrecipIn,Conditions,Clouds,dailyrainin,SoftwareType,DateUTC
2013-06-25 00:01:00,66.6,65.8,30.18,West,262,0.0,0.0,97,0.00,,CLR,0.00,VWS V14.00,2013-06-25 04:01:00,
2013-06-25 00:02:00,66.6,65.8,30.18,West,262,0.0,0.0,97,0.00,,CLR,0.00,VWS V14.00,2013-06-25 04:02:00,
2013-06-25 00:07:00,66.4,65.9,30.18,NNW,334,0.0,0.0,98,0.00,,CLR,0.00,VWS V14.00,2013-06-25 04:07:00,
2013-06-25 00:12:00,66.3,65.7,30.18,NNW,334,0.0,0.0,98,0.00,,CLR,0.00,VWS V14.00,2013-06-25 04:12:00,
2013-06-25 00:17:00,66.1,65.5,30.18,NNW,334,0.0,0.0,98,0.00,,CLR,0.00,VWS V14.00,2013-06-25 04:17:00,
2013-06-25 00:22:00,66.1,65.5,30.18,NNW,334,0.0,0.0,98,0.00,,CLR,0.00,VWS V14.00,2013-06-25 04:22:00,
2013-06-25 00:27:00,66.1,65.5,30.18,NNW,334,0.0,0.0,98,0.00,,CLR,0.00,VWS V14.00,2013-06-25 04:27:00,
2013-06-25 00:32:00,66.1,65.2,30.18,NNW,334,0.0,0.0,97,0.00,,CLR,0.00,VWS V14.00,2013-06-25 04:32:00,
2013-06-25 00:37:00,66.3,65.4,30.18,NNW,334,0.0,0.0,97,0.00,,CLR,0.00,VWS V14.00,2013-06-25 04:37:00,
2013-06-25 00:43:00,66.1,65.2,30.18,NNW,334,0.0,0.0,97,0.00,,CLR,0.00,VWS V14.00,2013-06-25 04:43:00,
2013-06-25 00:48:00,66.1,65.2,30.18,NNW,334,0.0,0.0,97,0.00,,CLR,0.00,VWS V14.00,2013-06-25 04:48:00,
2013-06-25 00:53:00,66.1,64.9,30.18,NNW,334,0.0,0.0,96,0.00,,CLR,0.00,VWS V14.00,2013-06-25 04:53:00,
2013-06-25 00:58:00,66.3,65.4,30.18,NNW,334,0.0,0.0,97,0.00,,CLR,0.00,VWS V14.00,2013-06-25 04:58:00,
2013-06-25 01:03:00,66.1,65.2,30.18,NNW,334,0.0,0.0,97,0.00,,CLR,0.00,VWS V14.00,2013-06-25 05:03:00,
2013-06-25 01:08:00,66.1,65.5,30.18,NNW,334,0.0,0.0,98,0.00,,CLR,0.00,VWS V14.00,2013-06-25 05:08:00,
2013-06-25 01:13:00,65.9,65.3,30.18,NW,319,0.0,0.0,98,0.00,,CLR,0.00,VWS V14.00,2013-06-25 05:13:00,
2013-06-25 01:18:00,65.3,64.8,30.18,NW,311,2.5,3.8,98,0.00,,CLR,0.00,VWS V14.00,2013-06-25 05:18:00,
2013-06-25 01:23:00,65.0,64.4,30.18,NW,311,0.0,3.2,98,0.00,,CLR,0.00,VWS V14.00,2013-06-25 05:23:00,
2013-06-25 01:28:00,65.3,64.8,30.18,NW,311,0.0,0.0,98,0.00,,CLR,0.00,VWS V14.00,2013-06-25 05:28:00,
2013-06-25 01:33:00,65.0,64.4,30.18,NW,311,0.0,0.0,98,0.00,,CLR,0.00,VWS V14.00,2013-06-25 05:33:00,
2013-06-25 01:39:00,65.0,64.4,30.18,NW,311,0.0,0.0,98,0.00,,CLR,0.00,VWS V14.00,2013-06-25 05:39:00,
2013-06-25 01:44:00,65.0,64.4,30.18,NNW,338,0.0,0.0,98,0.00,,CLR,0.00,VWS V14.00,2013-06-25 05:44:00,
2013-06-25 01:49:00,65.2,64.6,30.18,NNW,338,0.0,0.0,98,0.00,,CLR,0.00,VWS V14.00,2013-06-25 05:49:00,
2013-06-25 01:54:00,65.2,64.6,30.18,NNW,338,0.0,0.0,98,0.00,,CLR,0.00,VWS V14.00,2013-06-25 05:54:00,
2013-06-25 01:59:00,65.0,64.4,30.18,NNW,338,0.0,0.0,98,0.00,,CLR,0.00,VWS V14.00,2013-06-25 05:59:00,
2013-06-25 02:04:00,65.0,64.4,30.18,NNW,338,0.0,0.0,98,0.00,,CLR,0.00,VWS V14.00,2013-06-25 06:04:00,
2013-06-25 02:09:00,64.8,64.2,30.18,NNW,338,0.0,0.0,98,0.00,,CLR,0.00,VWS V14.00,2013-06-25 06:09:00,
2013-06-25 02:14:00,65.0,64.4,30.18,NNW,338,0.0,0.0,98,0.00,,CLR,0.00,VWS V14.00,2013-06-25 06:14:00,
2013-06-25 02:19:00,65.2,64.6,30.15,NNW,338,0.0,0.0,98,0.00,,CLR,0.00,VWS V14.00,2013-06-25 06:19:00,
2013-06-25 02:25:00,65.0,64.4,30.15,NNW,338,0.0,0.0,98,0.00,,CLR,0.00,VWS V14.00,2013-06-25 06:25:00,
2013-06-25 02:30:00,64.8,64.2,30.15,NNW,338,0.0,0.0,98,0.00,,CLR,0.00,VWS V14.00,2013-06-25 06:30:00,
2013-06-25 02:35:00,65.0,64.4,30.15,NNW,338,0.0,0.0,98,0.00,,CLR,0.00,VWS V14.00,2013-06-25 06:35:00,
2013-06-25 02:40:00,65.2,64.6,30.15,NNW,338,0.0,0.0,98,0.00,,CLR,0.00,VWS V14.00,2013-06-25 06:40:00,
2013-06-25 02:45:00,64.8,64.2,30.15,South,190,0.0,0.0,98,0.00,,CLR,0.00,VWS V14.00,2013-06-25 06:45:00,
2013-06-25 02:50:00,64.8,64.2,30.15,South,177,0.0,0.0,98,0.00,,CLR,0.00,VWS V14.00,2013-06-25 06:50:00,
2013-06-25 02:55:00,64.8,64.2,30.15,WNW,299,2.5,2.7,98,0.00,,CLR,0.00,VWS V14.00,2013-06-25 06:55:00,
2013-06-25 03:00:00,64.6,64.0,30.15,WNW,299,0.0,0.0,98,0.00,,CLR,0.00,VWS V14.00,2013-06-25 07:00:00,
2013-06-25 03:06:00,64.8,64.2,30.15,WNW,299,0.0,0.0,98,0.00,,CLR,0.00,VWS V14.00,2013-06-25 07:06:00,
2013-06-25 03:11:00,65.0,64.4,30.15,WNW,299,0.0,0.0,98,0.00,,CLR,0.00,VWS V14.00,2013-06-25 07:11:00,
2013-06-25 03:16:00,65.0,64.4,30.15,WNW,299,0.0,0.0,98,0.00,,CLR,0.00,VWS V14.00,2013-06-25 07:16:00,
2013-06-25 03:21:00,65.0,64.4,30.15,WNW,299,0.0,0.0,98,0.00,,CLR,0.00,VWS V14.00,2013-06-25 07:21:00,
2013-06-25 03:26:00,64.6,64.0,30.15,WNW,299,0.0,0.0,98,0.00,,CLR,0.00,VWS V14.00,2013-06-25 07:26:00,
2013-06-25 03:31:00,64.8,64.2,30.15,WNW,299,0.0,0.0,98,0.00,,CLR,0.00,VWS V14.00,2013-06-25 07:31:00,
2013-06-25 03:36:00,64.6,64.0,30.15,WNW,299,3.0,4.3,98,0.00,,CLR,0.00,VWS V14.00,2013-06-25 07:36:00,
2013-06-25 03:41:00,64.6,64.0,30.15,WNW,299,3.4,3.8,98,0.00,,CLR,0.00,VWS V14.00,2013-06-25 07:41:00,
2013-06-25 03:46:00,64.6,64.0,30.15,WNW,293,3.4,3.8,98,0.00,,CLR,0.00,VWS V14.00,2013-06-25 07:46:00,
2013-06-25 03:51:00,64.4,63.8,30.15,NW,321,2.5,3.2,98,0.00,,CLR,0.00,VWS V14.00,2013-06-25 07:51:00,
2013-06-25 03:56:00,64.4,63.8,30.15,WNW,295,0.0,0.0,98,0.00,,CLR,0.00,VWS V14.00,2013-06-25 07:56:00,
2013-06-25 04:01:00,64.4,63.8,30.15,WNW,295,0.0,0.0,98,0.00,,CLR,0.00,VWS V14.00,2013-06-25 08:01:00,
2013-06-25 04:07:00,64.4,63.8,30.15,WNW,295,0.0,0.0,98,0.00,,CLR,0.00,VWS V14.00,2013-06-25 08:07:00,
2013-06-25 04:12:00,64.4,63.8,30.15,WNW,295,0.0,0.0,98,0.00,,CLR,0.00,VWS V14.00,2013-06-25 08:12:00,
2013-06-25 04:17:00,64.4,63.8,30.15,WNW,295,0.0,0.0,98,0.00,,CLR,0.00,VWS V14.00,2013-06-25 08:17:00,
2013-06-25 04:22:00,64.4,63.8,30.15,WNW,295,0.0,0.0,98,0.00,,CLR,0.00,VWS V14.00,2013-06-25 08:22:00,
2013-06-25 04:27:00,64.4,63.8,30.15,WNW,295,0.0,0.0,98,0.00,,CLR,0.00,VWS V14.00,2013-06-25 08:27:00,
2013-06-25 04:32:00,64.6,64.0,30.15,WNW,295,0.0,0.0,98,0.00,,CLR,0.00,VWS V14.00,2013-06-25 08:32:00,
2013-06-25 04:37:00,64.4,63.8,30.15,WNW,295,0.0,0.0,98,0.00,,CLR,0.00,VWS V14.00,2013-06-25 08:37:00,
2013-06-25 04:42:00,64.4,63.8,30.15,NW,312,4.4,5.9,98,0.00,,CLR,0.00,VWS V14.00,2013-06-25 08:42:00,
2013-06-25 04:47:00,64.2,63.7,30.15,WNW,295,3.9,4.8,98,0.00,,CLR,0.00,VWS V14.00,2013-06-25 08:47:00,
2013-06-25 04:52:00,64.0,63.5,30.15,NW,316,5.4,6.4,98,0.00,,CLR,0.00,VWS V14.00,2013-06-25 08:52:00,
2013-06-25 04:58:00,63.8,63.3,30.15,NNW,342,5.9,7.0,98,0.00,,CLR,0.00,VWS V14.00,2013-06-25 08:58:00,
2013-06-25 05:03:00,63.8,63.3,30.15,NNW,333,0.0,0.0,98,0.00,,CLR,0.00,VWS V14.00,2013-06-25 09:03:00,
2013-06-25 05:08:00,64.0,63.5,30.15,NNW,333,0.0,0.0,98,0.00,,CLR,0.00,VWS V14.00,2013-06-25 09:08:00,
2013-06-25 05:13:00,64.0,63.5,30.15,NNW,333,0.0,0.0,98,0.00,,CLR,0.00,VWS V14.00,2013-06-25 09:13:00,
2013-06-25 05:18:00,64.0,63.5,30.15,NNW,333,0.0,0.0,98,0.00,,CLR,0.00,VWS V14.00,2013-06-25 09:18:00,
2013-06-25 05:23:00,64.0,63.5,30.15,NNW,333,0.0,0.0,98,0.00,,CLR,0.00,VWS V14.00,2013-06-25 09:23:00,
2013-06-25 05:28:00,64.0,63.5,30.15,WNW,297,3.0,3.2,98,0.00,,CLR,0.00,VWS V14.00,2013-06-25 09:28:00,
2013-06-25 05:33:00,64.0,63.5,30.15,NNW,339,0.0,0.0,98,0.00,,CLR,0.00,VWS V14.00,2013-06-25 09:33:00,
2013-06-25 05:38:00,64.0,63.5,30.15,WNW,302,3.4,3.8,98,0.00,,CLR,0.00,VWS V14.00,2013-06-25 09:38:00,
2013-06-25 05:44:00,63.8,63.3,30.15,NNW,343,3.4,4.3,98,0.00,,CLR,0.00,VWS V14.00,2013-06-25 09:44:00,
2013-06-25 05:49:00,63.8,63.3,30.15,NNW,345,0.0,0.0,98,0.00,,CLR,0.00,VWS V14.00,2013-06-25 09:49:00,
2013-06-25 05:54:00,63.8,63.3,30.15,NNW,344,3.0,3.2,98,0.00,,CLR,0.00,VWS V14.00,2013-06-25 09:54:00,
2013-06-25 05:59:00,63.8,63.3,30.15,NNW,344,0.0,0.0,98,0.00,,CLR,0.00,VWS V14.00,2013-06-25 09:59:00,
2013-06-25 06:04:00,63.8,63.3,30.15,NNW,344,2.5,2.7,98,0.00,,CLR,0.00,VWS V14.00,2013-06-25 10:04:00,
2013-06-25 06:09:00,64.0,63.5,30.15,NNW,344,0.0,0.0,98,0.00,,CLR,0.00,VWS V14.00,2013-06-25 10:09:00,
2013-06-25 06:14:00,63.8,63.3,30.15,NNW,344,0.0,0.0,98,0.00,,CLR,0.00,VWS V14.00,2013-06-25 10:14:00,
2013-06-25 06:19:00,63.8,63.3,30.15,NNW,333,4.4,4.8,98,0.00,,CLR,0.00,VWS V14.00,2013-06-25 10:19:00,
2013-06-25 06:24:00,63.8,63.3,30.15,NNW,333,0.0,0.0,98,0.00,,CLR,0.00,VWS V14.00,2013-06-25 10:24:00,
2013-06-25 06:29:00,63.8,63.3,30.15,NNW,333,0.0,0.0,98,0.00,,CLR,0.00,VWS V14.00,2013-06-25 10:29:00,
2013-06-25 06:34:00,63.8,63.3,30.15,NNW,333,0.0,0.0,98,0.00,,CLR,0.00,VWS V14.00,2013-06-25 10:34:00,
2013-06-25 06:40:00,64.0,63.5,30.15,NNW,333,0.0,0.0,98,0.00,,CLR,0.00,VWS V14.00,2013-06-25 10:40:00,
2013-06-25 06:45:00,64.0,63.5,30.15,NNW,340,0.0,0.0,98,0.00,,CLR,0.00,VWS V14.00,2013-06-25 10:45:00,
2013-06-25 06:50:00,64.0,63.5,30.15,NNW,340,0.0,0.0,98,0.00,,CLR,0.00,VWS V14.00,2013-06-25 10:50:00,
2013-06-25 06:55:00,64.0,63.5,30.15,NNW,340,0.0,0.0,98,0.00,,CLR,0.00,VWS V14.00,2013-06-25 10:55:00,
2013-06-25 07:00:00,64.0,63.5,30.15,NNW,340,0.0,0.0,98,0.00,,CLR,0.00,VWS V14.00,2013-06-25 11:00:00,
2013-06-25 07:05:00,64.0,63.5,30.15,NNW,340,0.0,0.0,98,0.00,,CLR,0.00,VWS V14.00,2013-06-25 11:05:00,
2013-06-25 07:10:00,64.0,63.5,30.15,NNW,340,0.0,0.0,98,0.00,,CLR,0.00,VWS V14.00,2013-06-25 11:10:00,
2013-06-25 07:15:00,64.2,63.7,30.15,NNW,340,0.0,0.0,98,0.00,,CLR,0.00,VWS V14.00,2013-06-25 11:15:00,
2013-06-25 07:20:00,64.0,63.5,30.15,NW,318,3.0,3.8,98,0.00,,CLR,0.00,VWS V14.00,2013-06-25 11:20:00,
2013-06-25 07:25:00,64.0,63.5,30.15,West,263,0.0,0.0,98,0.00,,CLR,0.00,VWS V14.00,2013-06-25 11:25:00,
2013-06-25 07:30:00,64.0,63.5,30.15,West,263,0.0,0.0,98,0.00,,CLR,0.00,VWS V14.00,2013-06-25 11:30:00,
2013-06-25 07:35:00,64.0,63.5,30.15,West,263,0.0,0.0,98,0.00,,CLR,0.00,VWS V14.00,2013-06-25 11:35:00,
2013-06-25 07:41:00,64.0,63.5,30.15,SSW,204,0.0,0.0,98,0.00,,CLR,0.00,VWS V14.00,2013-06-25 11:41:00,
2013-06-25 07:46:00,64.2,63.7,30.15,West,266,0.0,2.7,98,0.00,,CLR,0.00,VWS V14.00,2013-06-25 11:46:00,
2013-06-25 07:51:00,64.6,64.0,30.15,WNW,287,4.9,5.4,98,0.00,,CLR,0.00,VWS V14.00,2013-06-25 11:51:00,
2013-06-25 07:56:00,64.4,63.8,30.15,SSW,194,3.0,4.8,98,0.00,,CLR,0.00,VWS V14.00,2013-06-25 11:56:00,
2013-06-25 08:01:00,64.4,63.8,30.15,WNW,283,2.5,3.2,98,0.00,,CLR,0.00,VWS V14.00,2013-06-25 12:01:00,
2013-06-25 08:06:00,64.4,63.8,30.15,WNW,287,3.9,4.3,98,0.00,,FEW045,0.00,VWS V14.00,2013-06-25 12:06:00,
2013-06-25 08:11:00,64.4,63.8,30.15,WNW,297,0.0,0.0,98,0.00,,FEW045,0.00,VWS V14.00,2013-06-25 12:11:00,
2013-06-25 08:16:00,64.8,64.2,30.15,SSW,195,0.0,2.7,98,0.00,,FEW045,0.00,VWS V14.00,2013-06-25 12:16:00,
2013-06-25 08:21:00,64.8,64.2,30.15,WNW,294,3.0,3.8,98,0.00,,FEW045,0.00,VWS V14.00,2013-06-25 12:21:00,
2013-06-25 08:26:00,65.2,64.6,30.15,NNW,327,3.0,3.8,98,0.00,,FEW045,0.00,VWS V14.00,2013-06-25 12:26:00,
2013-06-25 08:31:00,65.2,64.6,30.18,NNW,333,0.0,0.0,98,0.00,,FEW045,0.00,VWS V14.00,2013-06-25 12:31:00,
2013-06-25 08:36:00,65.2,64.6,30.18,NNW,331,2.5,3.2,98,0.00,,FEW045,0.00,VWS V14.00,2013-06-25 12:36:00,
2013-06-25 08:41:00,65.3,64.8,30.18,NW,313,0.0,0.0,98,0.00,,FEW045,0.00,VWS V14.00,2013-06-25 12:41:00,
2013-06-25 08:46:00,65.5,64.9,30.18,WSW,245,0.0,0.0,98,0.00,,FEW045,0.00,VWS V14.00,2013-06-25 12:46:00,
2013-06-25 08:51:00,65.7,65.1,30.18,WSW,245,0.0,0.0,98,0.00,,FEW045,0.00,VWS V14.00,2013-06-25 12:51:00,
2013-06-25 08:56:00,65.7,65.1,30.18,South,184,0.0,0.0,98,0.00,,FEW045,0.00,VWS V14.00,2013-06-25 12:56:00,
2013-06-25 09:02:00,66.1,65.5,30.18,SSW,213,0.0,0.0,98,0.00,,FEW045,0.00,VWS V14.00,2013-06-25 13:02:00,
2013-06-25 09:07:00,66.3,65.7,30.18,South,175,0.0,0.0,98,0.00,,CLR,0.00,VWS V14.00,2013-06-25 13:07:00,
2013-06-25 09:12:00,66.6,66.1,30.18,WSW,254,0.0,0.0,98,0.00,,CLR,0.00,VWS V14.00,2013-06-25 13:12:00,
2013-06-25 09:17:00,66.8,66.2,30.18,SSW,206,0.0,2.7,98,0.00,,CLR,0.00,VWS V14.00,2013-06-25 13:17:00,
2013-06-25 09:22:00,67.0,66.4,30.18,West,263,0.0,0.0,98,0.00,,CLR,0.00,VWS V14.00,2013-06-25 13:22:00,
2013-06-25 09:27:00,67.4,66.8,30.18,West,261,0.0,3.2,98,0.00,,CLR,0.00,VWS V14.00,2013-06-25 13:27:00,
2013-06-25 09:32:00,67.4,66.8,30.18,SE,145,0.0,2.7,98,0.00,,CLR,0.00,VWS V14.00,2013-06-25 13:32:00,
2013-06-25 09:37:00,67.4,66.8,30.18,SSE,157,3.9,4.3,98,0.00,,CLR,0.00,VWS V14.00,2013-06-25 13:37:00,
2013-06-25 09:42:00,67.6,67.0,30.18,West,259,0.0,2.7,98,0.00,,CLR,0.00,VWS V14.00,2013-06-25 13:42:00,
2013-06-25 09:47:00,67.9,67.3,30.18,SSE,152,3.0,4.8,98,0.00,,CLR,0.00,VWS V14.00,2013-06-25 13:47:00,
2013-06-25 09:52:00,67.7,67.2,30.18,South,174,0.0,0.0,98,0.00,,CLR,0.00,VWS V14.00,2013-06-25 13:52:00,
2013-06-25 09:58:00,68.1,67.5,30.18,SSE,167,3.0,4.3,98,0.00,,CLR,0.00,VWS V14.00,2013-06-25 13:58:00,
2013-06-25 10:03:00,68.3,67.7,30.18,SSE,165,0.0,0.0,98,0.00,,BKN120,0.00,VWS V14.00,2013-06-25 14:03:00,
2013-06-25 10:08:00,68.5,67.9,30.18,SSE,165,2.5,3.2,98,0.00,,BKN120,0.00,VWS V14.00,2013-06-25 14:08:00,
2013-06-25 10:13:00,68.8,68.3,30.18,South,183,0.0,0.0,98,0.00,,BKN120,0.00,VWS V14.00,2013-06-25 14:13:00,
2013-06-25 10:18:00,69.0,68.5,30.18,SE,138,3.0,3.2,98,0.00,,BKN120,0.00,VWS V14.00,2013-06-25 14:18:00,
2013-06-25 10:23:00,69.4,68.8,30.18,SE,144,3.0,3.2,98,0.00,,BKN120,0.00,VWS V14.00,2013-06-25 14:23:00,
2013-06-25 10:28:00,69.4,68.8,30.18,South,176,0.0,0.0,98,0.00,,BKN120,0.00,VWS V14.00,2013-06-25 14:28:00,
2013-06-25 10:33:00,70.0,69.4,30.18,WSW,248,0.0,0.0,98,0.00,,BKN120,0.00,VWS V14.00,2013-06-25 14:33:00,
2013-06-25 10:38:00,70.5,69.9,30.18,South,182,0.0,3.8,98,0.00,,BKN120,0.00,VWS V14.00,2013-06-25 14:38:00,
2013-06-25 10:43:00,70.7,70.1,30.18,SSE,161,0.0,3.2,98,0.00,,BKN120,0.00,VWS V14.00,2013-06-25 14:43:00,
2013-06-25 10:48:00,71.3,70.7,30.18,South,170,3.4,3.8,98,0.00,,BKN120,0.00,VWS V14.00,2013-06-25 14:48:00,
2013-06-25 10:53:00,71.8,71.2,30.18,SSW,194,0.0,0.0,98,0.00,,BKN120,0.00,VWS V14.00,2013-06-25 14:53:00,
2013-06-25 10:58:00,72.6,72.0,30.18,South,173,0.0,4.8,98,0.00,,BKN120,0.00,VWS V14.00,2013-06-25 14:58:00,
2013-06-25 11:03:00,73.1,71.6,30.18,ENE,77,0.0,0.0,95,0.00,,BKN023,0.00,VWS V14.00,2013-06-25 15:03:00,
2013-06-25 11:09:00,73.9,70.8,30.18,SW,227,3.0,4.3,90,0.00,,BKN023,0.00,VWS V14.00,2013-06-25 15:09:00,
2013-06-25 11:14:00,73.9,69.8,30.18,West,278,4.4,4.8,87,0.00,,BKN023,0.00,VWS V14.00,2013-06-25 15:14:00,
2013-06-25 11:19:00,74.1,70.3,30.18,WNW,283,2.5,3.2,88,0.00,,BKN023,0.00,VWS V14.00,2013-06-25 15:19:00,
2013-06-25 11:24:00,73.9,69.4,30.18,West,268,6.4,8.1,86,0.00,,BKN023,0.00,VWS V14.00,2013-06-25 15:24:00,
2013-06-25 11:29:00,74.4,67.5,30.18,SW,231,5.9,7.5,79,0.00,,BKN023,0.00,VWS V14.00,2013-06-25 15:29:00,
2013-06-25 11:34:00,74.6,65.8,30.18,WSW,244,5.9,6.4,74,0.00,,SCT017,0.00,VWS V14.00,2013-06-25 15:34:00,
2013-06-25 11:39:00,74.2,65.4,30.18,West,279,5.9,6.4,74,0.00,,SCT017,0.00,VWS V14.00,2013-06-25 15:39:00,
2013-06-25 11:44:00,74.6,65.0,30.18,WSW,240,4.4,7.5,72,0.00,,SCT017,0.00,VWS V14.00,2013-06-25 15:44:00,
2013-06-25 11:49:00,74.8,64.8,30.18,SW,234,2.5,4.3,71,0.00,,SCT017,0.00,VWS V14.00,2013-06-25 15:49:00,
2013-06-25 11:54:00,75.2,64.7,30.18,SE,144,3.9,4.3,70,0.00,,SCT017,0.00,VWS V14.00,2013-06-25 15:54:00,
2013-06-25 11:59:00,75.3,64.9,30.18,West,260,4.4,4.8,70,0.00,,SCT017,0.00,VWS V14.00,2013-06-25 15:59:00,
2013-06-25 12:04:00,75.5,64.7,30.18,SSW,212,3.9,6.4,69,0.00,,CLR,0.00,VWS V14.00,2013-06-25 16:04:00,
2013-06-25 12:09:00,75.7,64.8,30.18,West,262,5.9,6.4,69,0.00,,CLR,0.00,VWS V14.00,2013-06-25 16:09:00,
2013-06-25 12:14:00,75.9,64.6,30.18,South,172,3.0,4.3,68,0.00,,CLR,0.00,VWS V14.00,2013-06-25 16:14:00,
2013-06-25 12:19:00,75.9,65.4,30.15,SW,215,3.0,3.8,70,0.00,,CLR,0.00,VWS V14.00,2013-06-25 16:19:00,
2013-06-25 12:25:00,76.5,65.1,30.15,SE,140,4.4,6.4,68,0.00,,CLR,0.00,VWS V14.00,2013-06-25 16:25:00,
2013-06-25 12:30:00,76.8,65.9,30.15,SSW,194,3.0,4.3,69,0.00,,CLR,0.00,VWS V14.00,2013-06-25 16:30:00,
2013-06-25 12:35:00,77.0,66.5,30.15,SE,124,4.4,6.4,70,0.00,,CLR,0.00,VWS V14.00,2013-06-25 16:35:00,
2013-06-25 12:40:00,77.2,66.2,30.15,SSW,200,4.4,9.1,69,0.00,,CLR,0.00,VWS V14.00,2013-06-25 16:40:00,
2013-06-25 12:45:00,77.6,65.3,30.15,SSW,200,3.4,5.9,66,0.00,,CLR,0.00,VWS V14.00,2013-06-25 16:45:00,
2013-06-25 12:50:00,78.1,65.8,30.15,SSW,197,8.9,9.7,66,0.00,,CLR,0.00,VWS V14.00,2013-06-25 16:50:00,
2013-06-25 12:55:00,78.7,65.5,30.15,West,269,3.9,9.1,64,0.00,,CLR,0.00,VWS V14.00,2013-06-25 16:55:00,
2013-06-25 13:00:00,79.1,65.8,30.15,SW,223,4.4,4.8,64,0.00,,CLR,0.00,VWS V14.00,2013-06-25 17:00:00,
2013-06-25 13:05:00,79.2,64.6,30.15,South,185,6.4,7.0,61,0.00,,SCT039,0.00,VWS V14.00,2013-06-25 17:05:00,
2013-06-25 13:10:00,79.6,66.4,30.15,SE,139,4.4,9.1,64,0.00,,SCT039,0.00,VWS V14.00,2013-06-25 17:10:00,
2013-06-25 13:15:00,79.8,64.7,30.15,ESE,108,3.0,4.8,60,0.00,,SCT039,0.00,VWS V14.00,2013-06-25 17:15:00,
2013-06-25 13:20:00,80.3,65.2,30.15,South,190,3.9,4.3,60,0.00,,SCT039,0.00,VWS V14.00,2013-06-25 17:20:00,
2013-06-25 13:25:00,80.7,66.0,30.15,SW,217,3.9,7.0,61,0.00,,SCT039,0.00,VWS V14.00,2013-06-25 17:25:00,
2013-06-25 13:31:00,80.7,65.6,30.15,South,188,5.4,5.9,60,0.00,,SCT039,0.00,VWS V14.00,2013-06-25 17:31:00,
2013-06-25 13:36:00,80.3,64.7,30.15,SSE,167,3.9,6.4,59,0.00,,SCT039,0.00,VWS V14.00,2013-06-25 17:36:00,
2013-06-25 13:41:00,81.1,66.4,30.15,WNW,299,5.4,6.4,61,0.00,,SCT039,0.00,VWS V14.00,2013-06-25 17:41:00,
2013-06-25 13:46:00,81.3,67.5,30.12,SSW,204,6.4,7.0,63,0.00,,SCT039,0.00,VWS V14.00,2013-06-25 17:46:00,
2013-06-25 13:51:00,81.7,67.4,30.12,WNW,300,2.5,5.9,62,0.00,,SCT039,0.00,VWS V14.00,2013-06-25 17:51:00,
2013-06-25 13:56:00,81.8,64.6,30.12,SSE,155,7.9,9.7,56,0.00,,SCT039,0.00,VWS V14.00,2013-06-25 17:56:00,
2013-06-25 14:01:00,82.2,65.0,30.12,South,184,8.4,9.1,56,0.00,,SCT039,0.00,VWS V14.00,2013-06-25 18:01:00,
2013-06-25 14:06:00,82.6,63.7,30.12,SE,146,5.9,7.5,53,0.00,,FEW030,0.00,VWS V14.00,2013-06-25 18:06:00,
2013-06-25 14:11:00,83.3,64.9,30.12,SSE,162,5.9,6.4,54,0.00,,FEW030,0.00,VWS V14.00,2013-06-25 18:11:00,
2013-06-25 14:16:00,83.1,62.6,30.12,WSW,251,4.4,6.4,50,0.00,,FEW030,0.00,VWS V14.00,2013-06-25 18:16:00,
2013-06-25 14:21:00,84.1,63.4,30.12,SW,233,4.4,9.1,50,0.00,,FEW030,0.00,VWS V14.00,2013-06-25 18:21:00,
2013-06-25 14:26:00,83.9,63.3,30.12,WSW,255,4.4,8.1,50,0.00,,FEW030,0.00,VWS V14.00,2013-06-25 18:26:00,
2013-06-25 14:31:00,84.8,64.7,30.12,West,272,5.9,9.1,51,0.00,,FEW030,0.00,VWS V14.00,2013-06-25 18:31:00,
2013-06-25 14:36:00,84.8,64.7,30.12,WSW,254,3.4,7.5,51,0.00,,FEW030,0.00,VWS V14.00,2013-06-25 18:36:00,
2013-06-25 14:41:00,84.8,63.5,30.12,WSW,237,5.9,6.4,49,0.00,,FEW030,0.00,VWS V14.00,2013-06-25 18:41:00,
2013-06-25 14:46:00,84.8,61.7,30.12,SE,135,5.9,6.4,46,0.00,,FEW030,0.00,VWS V14.00,2013-06-25 18:46:00,
2013-06-25 14:51:00,85.0,63.7,30.12,South,191,3.9,4.8,49,0.00,,FEW030,0.00,VWS V14.00,2013-06-25 18:51:00,
2013-06-25 14:57:00,85.5,64.2,30.12,SW,216,3.9,4.8,49,0.00,,FEW030,0.00,VWS V14.00,2013-06-25 18:57:00,
2013-06-25 15:02:00,85.7,63.2,30.12,SSE,162,3.4,7.0,47,0.00,,FEW030,0.00,VWS V14.00,2013-06-25 19:02:00,
2013-06-25 15:07:00,85.5,61.8,30.12,SW,214,3.9,4.8,45,0.00,,FEW035,0.00,VWS V14.00,2013-06-25 19:07:00,
2013-06-25 15:12:00,85.5,63.0,30.12,South,173,3.0,7.5,47,0.00,,FEW035,0.00,VWS V14.00,2013-06-25 19:12:00,
2013-06-25 15:17:00,86.1,63.5,30.12,WSW,254,6.4,9.1,47,0.00,,FEW035,0.00,VWS V14.00,2013-06-25 19:17:00,
2013-06-25 15:22:00,86.3,63.7,30.12,SW,216,5.9,6.4,47,0.00,,FEW035,0.00,VWS V14.00,2013-06-25 19:22:00,
2013-06-25 15:27:00,86.5,63.3,30.12,West,275,6.9,9.7,46,0.00,,FEW035,0.00,VWS V14.00,2013-06-25 19:27:00,
2013-06-25 15:32:00,86.1,62.3,30.12,West,276,9.6,12.1,45,0.00,,FEW035,0.00,VWS V14.00,2013-06-25 19:32:00,
2013-06-25 15:37:00,86.3,61.2,30.12,NW,314,6.9,9.7,43,0.00,,FEW035,0.00,VWS V14.00,2013-06-25 19:37:00,
2013-06-25 15:43:00,86.3,63.7,30.12,SSW,210,5.4,7.0,47,0.00,,FEW035,0.00,VWS V14.00,2013-06-25 19:43:00,
2013-06-25 15:48:00,87.0,61.8,30.09,WSW,242,3.9,5.4,43,0.00,,FEW035,0.00,VWS V14.00,2013-06-25 19:48:00,
2013-06-25 15:53:00,86.5,62.0,30.09,WNW,301,6.9,7.5,44,0.00,,FEW035,0.00,VWS V14.00,2013-06-25 19:53:00,
2013-06-25 15:58:00,87.4,62.8,30.09,SW,224,4.4,4.8,44,0.00,,FEW035,0.00,VWS V14.00,2013-06-25 19:58:00,
2013-06-25 16:03:00,87.2,60.7,30.09,SSE,154,4.4,4.8,41,0.00,,FEW035,0.00,VWS V14.00,2013-06-25 20:03:00,
2013-06-25 16:08:00,87.0,60.5,30.09,NW,319,8.9,9.7,41,0.00,,FEW035,0.00,VWS V14.00,2013-06-25 20:08:00,
2013-06-25 16:13:00,86.7,60.8,30.09,WSW,245,4.4,7.0,42,0.00,,FEW035,0.00,VWS V14.00,2013-06-25 20:13:00,
2013-06-25 16:18:00,87.6,61.0,30.09,WSW,246,4.4,4.8,41,0.00,,SCT037,0.00,VWS V14.00,2013-06-25 20:18:00,
2013-06-25 16:23:00,87.2,60.7,30.09,WSW,253,6.4,7.0,41,0.00,,SCT037,0.00,VWS V14.00,2013-06-25 20:23:00,
2013-06-25 16:28:00,87.0,61.8,30.09,WNW,295,8.9,10.5,43,0.00,,SCT037,0.00,VWS V14.00,2013-06-25 20:28:00,
2013-06-25 16:33:00,87.2,62.0,30.09,WNW,286,3.4,6.4,43,0.00,,SCT037,0.00,VWS V14.00,2013-06-25 20:33:00,
2013-06-25 16:38:00,87.2,62.0,30.09,WNW,283,4.9,5.4,43,0.00,,SCT037,0.00,VWS V14.00,2013-06-25 20:38:00,
2013-06-25 16:43:00,87.6,61.7,30.09,West,272,5.4,7.5,42,0.00,,SCT037,0.00,VWS V14.00,2013-06-25 20:43:00,
2013-06-25 16:48:00,87.4,62.2,30.09,NW,307,6.9,7.5,43,0.00,,SCT037,0.00,VWS V14.00,2013-06-25 20:48:00,
2013-06-25 16:53:00,87.4,61.5,30.09,WNW,286,3.4,5.9,42,0.00,,SCT037,0.00,VWS V14.00,2013-06-25 20:53:00,
2013-06-25 16:58:00,86.7,60.2,30.09,WSW,247,5.4,6.4,41,0.00,,SCT037,0.00,VWS V14.00,2013-06-25 20:58:00,
2013-06-25 17:03:00,87.0,60.5,30.09,SE,142,3.9,8.6,41,0.00,,SCT037,0.00,VWS V14.00,2013-06-25 21:03:00,
2013-06-25 17:08:00,86.8,60.3,30.09,WSW,247,5.4,5.9,41,0.00,,SCT037,0.00,VWS V14.00,2013-06-25 21:08:00,
2013-06-25 17:13:00,86.5,60.0,30.09,SW,233,5.9,6.4,41,0.00,,SCT037,0.00,VWS V14.00,2013-06-25 21:13:00,
2013-06-25 17:19:00,86.5,60.7,30.09,SSW,211,2.5,4.3,42,0.00,,OVC090,0.00,VWS V14.00,2013-06-25 21:19:00,
2013-06-25 17:24:00,86.3,62.5,30.09,WSW,252,6.9,9.1,45,0.00,,OVC090,0.00,VWS V14.00,2013-06-25 21:24:00,
2013-06-25 17:29:00,85.9,60.8,30.09,WNW,284,3.4,7.5,43,0.00,,OVC090,0.00,VWS V14.00,2013-06-25 21:29:00,
2013-06-25 17:34:00,85.4,61.0,30.06,West,279,4.4,4.8,44,0.00,,OVC090,0.00,VWS V14.00,2013-06-25 21:34:00,
2013-06-25 17:39:00,84.8,61.1,30.06,West,267,3.0,3.2,45,0.00,,OVC090,0.00,VWS V14.00,2013-06-25 21:39:00,
2013-06-25 17:44:00,84.6,61.0,30.06,WSW,258,3.4,5.4,45,0.00,,OVC090,0.00,VWS V14.00,2013-06-25 21:44:00,
2013-06-25 17:49:00,84.8,62.3,30.06,SW,227,3.9,4.8,47,0.00,,OVC090,0.00,VWS V14.00,2013-06-25 21:49:00,
2013-06-25 17:54:00,84.8,62.3,30.06,NNW,330,3.4,3.8,47,0.00,,OVC090,0.00,VWS V14.00,2013-06-25 21:54:00,
2013-06-25 17:59:00,84.1,61.7,30.06,West,266,4.4,6.4,47,0.00,,OVC090,0.00,VWS V14.00,2013-06-25 21:59:00,
2013-06-25 18:04:00,84.2,62.4,30.06,SSW,206,4.4,5.9,48,0.00,,FEW040,0.00,VWS V14.00,2013-06-25 22:04:00,
2013-06-25 18:10:00,84.2,63.0,30.06,SSW,211,2.5,6.4,49,0.00,,FEW040,0.00,VWS V14.00,2013-06-25 22:10:00,
2013-06-25 18:15:00,84.1,62.3,30.06,SSW,207,3.0,4.8,48,0.00,,FEW040,0.00,VWS V14.00,2013-06-25 22:15:00,
2013-06-25 18:20:00,83.9,61.5,30.06,SSE,159,3.4,4.8,47,0.00,,FEW040,0.00,VWS V14.00,2013-06-25 22:20:00,
2013-06-25 18:25:00,83.9,61.5,30.06,SE,144,3.4,6.4,47,0.00,,FEW040,0.00,VWS V14.00,2013-06-25 22:25:00,
2013-06-25 18:30:00,83.9,62.1,30.06,WSW,238,3.4,3.8,48,0.00,,FEW040,0.00,VWS V14.00,2013-06-25 22:30:00,
2013-06-25 18:35:00,83.7,61.9,30.06,SSW,194,3.4,4.3,48,0.00,,FEW040,0.00,VWS V14.00,2013-06-25 22:35:00,
2013-06-25 18:40:00,83.5,63.5,30.06,SSW,207,0.0,4.3,51,0.00,,FEW040,0.00,VWS V14.00,2013-06-25 22:40:00,
2013-06-25 18:45:00,82.9,63.5,30.06,ESE,122,3.9,4.8,52,0.00,,FEW040,0.00,VWS V14.00,2013-06-25 22:45:00,
2013-06-25 18:50:00,82.4,63.6,30.03,South,174,0.0,4.3,53,0.00,,FEW040,0.00,VWS V14.00,2013-06-25 22:50:00,
2013-06-25 18:56:00,82.2,64.4,30.03,SE,141,0.0,3.2,55,0.00,,FEW040,0.00,VWS V14.00,2013-06-25 22:56:00,
2013-06-25 19:01:00,81.8,64.6,30.06,SSE,165,2.5,3.8,56,0.00,,FEW040,0.00,VWS V14.00,2013-06-25 23:01:00,
2013-06-25 19:06:00,81.8,65.6,30.06,SE,130,3.0,3.2,58,0.00,,CLR,0.00,VWS V14.00,2013-06-25 23:06:00,
2013-06-25 19:11:00,81.7,65.9,30.06,SE,143,2.5,4.8,59,0.00,,CLR,0.00,VWS V14.00,2013-06-25 23:11:00,
2013-06-25 19:16:00,81.5,65.8,30.03,South,175,0.0,0.0,59,0.00,,CLR,0.00,VWS V14.00,2013-06-25 23:16:00,
2013-06-25 19:21:00,81.5,65.8,30.03,SSE,160,0.0,4.8,59,0.00,,CLR,0.00,VWS V14.00,2013-06-25 23:21:00,
2013-06-25 19:26:00,81.5,66.2,30.03,SW,215,3.4,4.8,60,0.00,,CLR,0.00,VWS V14.00,2013-06-25 23:26:00,
2013-06-25 19:31:00,81.3,66.6,30.06,SSW,201,0.0,3.2,61,0.00,,CLR,0.00,VWS V14.00,2013-06-25 23:31:00,
2013-06-25 19:36:00,80.9,66.2,30.06,West,271,3.4,3.8,61,0.00,,CLR,0.00,VWS V14.00,2013-06-25 23:36:00,
2013-06-25 19:41:00,80.5,66.8,30.06,WSW,252,3.4,3.8,63,0.00,,CLR,0.00,VWS V14.00,2013-06-25 23:41:00,
2013-06-25 19:46:00,80.0,67.2,30.06,WSW,253,2.5,2.7,65,0.00,,CLR,0.00,VWS V14.00,2013-06-25 23:46:00,
2013-06-25 19:52:00,79.8,67.0,30.06,WSW,253,0.0,3.2,65,0.00,,CLR,0.00,VWS V14.00,2013-06-25 23:52:00,
2013-06-25 19:57:00,79.8,67.4,30.06,SSW,193,0.0,2.7,66,0.00,,CLR,0.00,VWS V14.00,2013-06-25 23:57:00,
2013-06-25 20:02:00,79.6,67.7,30.06,SSW,193,0.0,0.0,67,0.00,,CLR,0.00,VWS V14.00,2013-06-26 00:02:00,
2013-06-25 20:07:00,79.4,67.1,30.06,West,278,2.5,3.2,66,0.00,,CLR,0.00,VWS V14.00,2013-06-26 00:07:00,
2013-06-25 20:12:00,79.1,67.2,30.06,NW,318,0.0,0.0,67,0.00,,CLR,0.00,VWS V14.00,2013-06-26 00:12:00,
2013-06-25 20:17:00,78.9,67.0,30.06,SSW,198,0.0,2.7,67,0.00,,CLR,0.00,VWS V14.00,2013-06-26 00:17:00,
2013-06-25 20:22:00,78.7,66.8,30.06,West,281,0.0,4.3,67,0.00,,CLR,0.00,VWS V14.00,2013-06-26 00:22:00,
2013-06-25 20:27:00,78.5,66.6,30.06,SSE,149,3.0,3.8,67,0.00,,CLR,0.00,VWS V14.00,2013-06-26 00:27:00,
2013-06-25 20:32:00,78.1,66.7,30.06,SSE,150,3.0,4.8,68,0.00,,CLR,0.00,VWS V14.00,2013-06-26 00:32:00,
2013-06-25 20:37:00,77.8,66.4,30.06,South,169,3.4,3.8,68,0.00,,CLR,0.00,VWS V14.00,2013-06-26 00:37:00,
2013-06-25 20:42:00,77.6,66.2,30.06,SSW,213,2.5,2.7,68,0.00,,CLR,0.00,VWS V14.00,2013-06-26 00:42:00,
2013-06-25 20:47:00,77.4,66.4,30.09,SSW,213,0.0,0.0,69,0.00,,CLR,0.00,VWS V14.00,2013-06-26 00:47:00,
2013-06-25 20:52:00,77.2,66.2,30.09,SE,135,3.0,4.3,69,0.00,,CLR,0.00,VWS V14.00,2013-06-26 00:52:00,
2013-06-25 20:57:00,76.6,66.1,30.09,ESE,122,3.0,3.2,70,0.00,,CLR,0.00,VWS V14.00,2013-06-26 00:57:00,
2013-06-25 21:02:00,76.5,65.9,30.09,ESE,102,0.0,3.8,70,0.00,,CLR,0.00,VWS V14.00,2013-06-26 01:02:00,
2013-06-25 21:07:00,76.3,66.2,30.09,ESE,102,2.5,2.7,71,0.00,,CLR,0.00,VWS V14.00,2013-06-26 01:07:00,
2013-06-25 21:12:00,76.3,66.2,30.09,SSE,154,3.9,4.3,71,0.00,,CLR,0.00,VWS V14.00,2013-06-26 01:12:00,
2013-06-25 21:17:00,76.1,66.0,30.09,ESE,108,2.5,4.3,71,0.00,,CLR,0.00,VWS V14.00,2013-06-26 01:17:00,
2013-06-25 21:23:00,76.1,66.0,30.09,SE,131,0.0,0.0,71,0.00,,CLR,0.00,VWS V14.00,2013-06-26 01:23:00,
2013-06-25 21:27:00,75.3,66.1,30.09,SE,131,0.0,0.0,73,0.00,,CLR,0.00,VWS V14.00,2013-06-26 01:27:00,
2013-06-25 21:28:00,75.3,66.1,30.09,SE,131,0.0,0.0,73,0.00,,CLR,0.00,VWS V14.00,2013-06-26 01:28:00,
2013-06-25 21:33:00,75.2,66.3,30.09,SE,131,0.0,0.0,74,0.00,,CLR,0.00,VWS V14.00,2013-06-26 01:33:00,
2013-06-25 21:38:00,75.2,66.3,30.09,SE,131,0.0,0.0,74,0.00,,CLR,0.00,VWS V14.00,2013-06-26 01:38:00,
2013-06-25 21:43:00,75.0,66.5,30.09,SE,131,0.0,0.0,75,0.00,,CLR,0.00,VWS V14.00,2013-06-26 01:43:00,
2013-06-25 21:48:00,74.8,66.3,30.09,SE,131,0.0,0.0,75,0.00,,CLR,0.00,VWS V14.00,2013-06-26 01:48:00,
2013-06-25 21:53:00,73.9,66.2,30.09,SE,131,0.0,0.0,77,0.00,,CLR,0.00,VWS V14.00,2013-06-26 01:53:00,
2013-06-25 21:58:00,73.9,66.6,30.09,SE,131,2.5,2.7,78,0.00,,CLR,0.00,VWS V14.00,2013-06-26 01:58:00,
2013-06-25 22:03:00,73.3,66.4,30.09,SE,131,0.0,0.0,79,0.00,,CLR,0.00,VWS V14.00,2013-06-26 02:03:00,
2013-06-25 22:08:00,72.9,66.8,30.09,SE,131,0.0,0.0,81,0.00,,CLR,0.00,VWS V14.00,2013-06-26 02:08:00,
2013-06-25 22:13:00,72.9,66.8,30.09,SE,131,0.0,0.0,81,0.00,,CLR,0.00,VWS V14.00,2013-06-26 02:13:00,
2013-06-25 22:18:00,72.6,66.8,30.09,SE,131,0.0,0.0,82,0.00,,CLR,0.00,VWS V14.00,2013-06-26 02:18:00,
2013-06-25 22:23:00,72.4,67.3,30.09,SE,131,0.0,0.0,84,0.00,,CLR,0.00,VWS V14.00,2013-06-26 02:23:00,
2013-06-25 22:28:00,72.2,67.1,30.09,SE,131,0.0,0.0,84,0.00,,CLR,0.00,VWS V14.00,2013-06-26 02:28:00,
2013-06-25 22:33:00,72.4,66.9,30.09,SE,131,0.0,2.7,83,0.00,,CLR,0.00,VWS V14.00,2013-06-26 02:33:00,
2013-06-25 22:38:00,72.4,66.9,30.09,SE,131,0.0,0.0,83,0.00,,CLR,0.00,VWS V14.00,2013-06-26 02:38:00,
2013-06-25 22:43:00,72.6,67.1,30.09,SE,131,0.0,0.0,83,0.00,,CLR,0.00,VWS V14.00,2013-06-26 02:43:00,
2013-06-25 22:49:00,72.4,67.3,30.09,SE,131,2.5,2.7,84,0.00,,CLR,0.00,VWS V14.00,2013-06-26 02:49:00,
2013-06-25 22:54:00,72.2,67.1,30.09,SE,131,0.0,0.0,84,0.00,,CLR,0.00,VWS V14.00,2013-06-26 02:54:00,
2013-06-25 22:59:00,72.0,66.9,30.09,East,97,0.0,3.8,84,0.00,,CLR,0.00,VWS V14.00,2013-06-26 02:59:00,
2013-06-25 23:04:00,71.8,66.7,30.09,East,97,0.0,0.0,84,0.00,,CLR,0.00,VWS V14.00,2013-06-26 03:04:00,
2013-06-25 23:09:00,71.8,66.7,30.09,East,97,0.0,0.0,84,0.00,,CLR,0.00,VWS V14.00,2013-06-26 03:09:00,
2013-06-25 23:14:00,71.6,66.6,30.09,East,97,0.0,0.0,84,0.00,,CLR,0.00,VWS V14.00,2013-06-26 03:14:00,
2013-06-25 23:19:00,71.4,66.4,30.09,East,97,0.0,0.0,84,0.00,,CLR,0.00,VWS V14.00,2013-06-26 03:19:00,
2013-06-25 23:24:00,71.4,66.4,30.09,East,97,0.0,2.7,84,0.00,,CLR,0.00,VWS V14.00,2013-06-26 03:24:00,
2013-06-25 23:30:00,71.3,66.9,30.09,East,97,3.0,3.2,86,0.00,,CLR,0.00,VWS V14.00,2013-06-26 03:30:00,
2013-06-25 23:35:00,70.9,66.5,30.09,East,97,0.0,2.7,86,0.00,,CLR,0.00,VWS V14.00,2013-06-26 03:35:00,
2013-06-25 23:40:00,70.9,66.5,30.09,East,97,2.5,3.2,86,0.00,,CLR,0.00,VWS V14.00,2013-06-26 03:40:00,
2013-06-25 23:45:00,70.5,66.8,30.09,East,97,0.0,2.7,88,0.00,,CLR,0.00,VWS V14.00,2013-06-26 03:45:00,
2013-06-25 23:50:00,70.7,67.0,30.09,East,97,0.0,0.0,88,0.00,,CLR,0.00,VWS V14.00,2013-06-26 03:50:00,
2013-06-25 23:55:00,69.8,66.1,30.09,East,97,0.0,0.0,88,0.00,,CLR,0.00,VWS V14.00,2013-06-26 03:55:00,